Station Historical Data
Daily Summary for January 9, 2017 Units:  Both    English   Metric
« Previous Day
Next Day »
Daily Weekly Monthly Yearly Custom
  High: Low: Average:
Temperature: 26.6 °F /  -3 °C 14.3 °F /  -9.8 °C 19.5 °F /  -6.9 °C
Dew Point: 14.8 °F /  -9.6 °C 4.4 °F /  -15.3 °C 9.1 °F /  -12.7 °C
Humidity: 78% 52% 64%
Wind Speed: 20.0mph /  32.2km/h - 4.9mph /  7.9km/h
Wind Gust: 21.0mph /  33.8km/h - -
Wind- - SSW
Pressure: 30.63 in /  1037.1 hPa 30.40 in /  1029.3 hPa -
Precipitation: 0.00 in /  0 mm    
Historical Graphs
 
 
Tabular Data for January 9, 2017
Time Temperature Dew Point Pressure Wind Wind Speed Wind Gust Humidity Rainfall Rate (Hourly)
00:04 15.2 °F /  -9.3 °C 7.2 °F /  -13.8 °C 30.63in /  1037.1hPa West 3.0mph /  4.8km/h 6.0mph /  9.7km/h 70% 0.00in /  0mm
00:14 15.8 °F /  -9 °C 7.1 °F /  -13.8 °C 30.63in /  1037.1hPa West 2.0mph /  3.2km/h 9.0mph /  14.5km/h 68% 0.00in /  0mm
00:19 16.1 °F /  -8.8 °C 6.7 °F /  -14.1 °C 30.63in /  1037.1hPa SSW 4.0mph /  6.4km/h 9.0mph /  14.5km/h 66% 0.00in /  0mm
00:24 16.3 °F /  -8.7 °C 6.2 °F /  -14.3 °C 30.62in /  1036.8hPa WSW 4.0mph /  6.4km/h 10.0mph /  16.1km/h 64% 0.00in /  0mm
00:29 16.4 °F /  -8.7 °C 6.3 °F /  -14.3 °C 30.62in /  1036.8hPa WSW 5.0mph /  8km/h 10.0mph /  16.1km/h 64% 0.00in /  0mm
00:34 16.4 °F /  -8.7 °C 6.0 °F /  -14.4 °C 30.62in /  1036.8hPa WSW 5.0mph /  8km/h 9.0mph /  14.5km/h 63% 0.00in /  0mm
00:39 16.4 °F /  -8.7 °C 6.0 °F /  -14.4 °C 30.62in /  1036.8hPa WSW 5.0mph /  8km/h 10.0mph /  16.1km/h 63% 0.00in /  0mm
00:44 16.4 °F /  -8.7 °C 6.0 °F /  -14.4 °C 30.62in /  1036.8hPa West 4.0mph /  6.4km/h 6.0mph /  9.7km/h 63% 0.00in /  0mm
00:49 16.2 °F /  -8.8 °C 5.8 °F /  -14.6 °C 30.62in /  1036.8hPa West 4.0mph /  6.4km/h 9.0mph /  14.5km/h 63% 0.00in /  0mm
00:54 16.2 °F /  -8.8 °C 5.5 °F /  -14.7 °C 30.62in /  1036.8hPa West 4.0mph /  6.4km/h 9.0mph /  14.5km/h 62% 0.00in /  0mm
00:59 16.0 °F /  -8.9 °C 4.9 °F /  -15.1 °C 30.61in /  1036.5hPa West 5.0mph /  8km/h 9.0mph /  14.5km/h 61% 0.00in /  0mm
01:04 15.8 °F /  -9 °C 4.7 °F /  -15.2 °C 30.61in /  1036.5hPa WNW 4.0mph /  6.4km/h 9.0mph /  14.5km/h 61% 0.00in /  0mm
01:09 15.5 °F /  -9.2 °C 4.8 °F /  -15.1 °C 30.61in /  1036.5hPa WNW 3.0mph /  4.8km/h 8.0mph /  12.9km/h 62% 0.00in /  0mm
01:14 15.3 °F /  -9.3 °C 4.6 °F /  -15.2 °C 30.61in /  1036.5hPa West 1.0mph /  1.6km/h 6.0mph /  9.7km/h 62% 0.00in /  0mm
01:19 15.1 °F /  -9.4 °C 4.4 °F /  -15.3 °C 30.61in /  1036.5hPa West 1.0mph /  1.6km/h 4.0mph /  6.4km/h 62% 0.00in /  0mm
01:24 14.9 °F /  -9.5 °C 4.6 °F /  -15.2 °C 30.61in /  1036.5hPa West 3.0mph /  4.8km/h 4.0mph /  6.4km/h 63% 0.00in /  0mm
01:29 14.8 °F /  -9.6 °C 4.8 °F /  -15.1 °C 30.61in /  1036.5hPa West 2.0mph /  3.2km/h 4.0mph /  6.4km/h 64% 0.00in /  0mm
01:34 15.0 °F /  -9.4 °C 5.0 °F /  -15 °C 30.61in /  1036.5hPa West 2.0mph /  3.2km/h 5.0mph /  8km/h 64% 0.00in /  0mm
01:39 15.3 °F /  -9.3 °C 5.3 °F /  -14.8 °C 30.61in /  1036.5hPa WSW 2.0mph /  3.2km/h 4.0mph /  6.4km/h 64% 0.00in /  0mm
01:44 15.6 °F /  -9.1 °C 5.6 °F /  -14.7 °C 30.61in /  1036.5hPa Calm   2.0mph /  3.2km/h 64% 0.00in /  0mm
01:49 15.6 °F /  -9.1 °C 5.9 °F /  -14.5 °C 30.61in /  1036.5hPa Calm   1.0mph /  1.6km/h 65% 0.00in /  0mm
01:54 15.7 °F /  -9.1 °C 6.3 °F /  -14.3 °C 30.61in /  1036.5hPa NW 1.0mph /  1.6km/h 3.0mph /  4.8km/h 66% 0.00in /  0mm
01:59 15.9 °F /  -8.9 °C 6.5 °F /  -14.2 °C 30.61in /  1036.5hPa West 2.0mph /  3.2km/h 3.0mph /  4.8km/h 66% 0.00in /  0mm
02:04 16.2 °F /  -8.8 °C 6.5 °F /  -14.2 °C 30.61in /  1036.5hPa West 2.0mph /  3.2km/h 3.0mph /  4.8km/h 65% 0.00in /  0mm
02:09 16.2 °F /  -8.8 °C 6.8 °F /  -14 °C 30.61in /  1036.5hPa West 1.0mph /  1.6km/h 3.0mph /  4.8km/h 66% 0.00in /  0mm
02:14 16.4 °F /  -8.7 °C 7.0 °F /  -13.9 °C 30.61in /  1036.5hPa Calm   3.0mph /  4.8km/h 66% 0.00in /  0mm
02:19 16.5 °F /  -8.6 °C 6.8 °F /  -14 °C 30.61in /  1036.5hPa West 1.0mph /  1.6km/h 3.0mph /  4.8km/h 65% 0.00in /  0mm
02:24 16.7 °F /  -8.5 °C 7.0 °F /  -13.9 °C 30.61in /  1036.5hPa West 1.0mph /  1.6km/h 4.0mph /  6.4km/h 65% 0.00in /  0mm
02:29 16.7 °F /  -8.5 °C 7.3 °F /  -13.7 °C 30.61in /  1036.5hPa West 2.0mph /  3.2km/h 4.0mph /  6.4km/h 66% 0.00in /  0mm
02:34 16.8 °F /  -8.4 °C 6.7 °F /  -14.1 °C 30.61in /  1036.5hPa WSW 3.0mph /  4.8km/h 4.0mph /  6.4km/h 64% 0.00in /  0mm
02:39 16.9 °F /  -8.4 °C 6.8 °F /  -14 °C 30.61in /  1036.5hPa WSW 1.0mph /  1.6km/h 4.0mph /  6.4km/h 64% 0.00in /  0mm
02:49 16.8 °F /  -8.4 °C 7.4 °F /  -13.7 °C 30.61in /  1036.5hPa South 1.0mph /  1.6km/h 4.0mph /  6.4km/h 66% 0.00in /  0mm
02:54 16.8 °F /  -8.4 °C 7.7 °F /  -13.5 °C 30.61in /  1036.5hPa Calm   3.0mph /  4.8km/h 67% 0.00in /  0mm
02:59 16.7 °F /  -8.5 °C 7.6 °F /  -13.6 °C 30.60in /  1036.1hPa South 2.0mph /  3.2km/h 4.0mph /  6.4km/h 67% 0.00in /  0mm
03:04 16.7 °F /  -8.5 °C 8.0 °F /  -13.3 °C 30.60in /  1036.1hPa South 3.0mph /  4.8km/h 4.0mph /  6.4km/h 68% 0.00in /  0mm
03:09 16.7 °F /  -8.5 °C 8.3 °F /  -13.2 °C 30.60in /  1036.1hPa South 3.0mph /  4.8km/h 4.0mph /  6.4km/h 69% 0.00in /  0mm
03:14 16.6 °F /  -8.6 °C 7.9 °F /  -13.4 °C 30.60in /  1036.1hPa SSE 3.0mph /  4.8km/h 7.0mph /  11.3km/h 68% 0.00in /  0mm
03:19 16.3 °F /  -8.7 °C 8.2 °F /  -13.2 °C 30.60in /  1036.1hPa South 4.0mph /  6.4km/h 7.0mph /  11.3km/h 70% 0.00in /  0mm
03:24 16.1 °F /  -8.8 °C 8.7 °F /  -12.9 °C 30.60in /  1036.1hPa South 3.0mph /  4.8km/h 7.0mph /  11.3km/h 72% 0.00in /  0mm
03:29 16.1 °F /  -8.8 °C 9.0 °F /  -12.8 °C 30.60in /  1036.1hPa South 4.0mph /  6.4km/h 6.0mph /  9.7km/h 73% 0.00in /  0mm
03:34 16.1 °F /  -8.8 °C 9.3 °F /  -12.6 °C 30.60in /  1036.1hPa SSE 1.0mph /  1.6km/h 5.0mph /  8km/h 74% 0.00in /  0mm
03:39 16.1 °F /  -8.8 °C 9.6 °F /  -12.4 °C 30.60in /  1036.1hPa South 1.0mph /  1.6km/h 5.0mph /  8km/h 75% 0.00in /  0mm
03:44 16.1 °F /  -8.8 °C 9.9 °F /  -12.3 °C 30.60in /  1036.1hPa South 3.0mph /  4.8km/h 5.0mph /  8km/h 76% 0.00in /  0mm
03:49 16.1 °F /  -8.8 °C 10.2 °F /  -12.1 °C 30.60in /  1036.1hPa South 3.0mph /  4.8km/h 5.0mph /  8km/h 77% 0.00in /  0mm
03:54 15.9 °F /  -8.9 °C 10.0 °F /  -12.2 °C 30.60in /  1036.1hPa SSW 3.0mph /  4.8km/h 4.0mph /  6.4km/h 77% 0.00in /  0mm
03:59 16.0 °F /  -8.9 °C 10.3 °F /  -12.1 °C 30.60in /  1036.1hPa South 2.0mph /  3.2km/h 4.0mph /  6.4km/h 78% 0.00in /  0mm
04:04 16.0 °F /  -8.9 °C 10.3 °F /  -12.1 °C 30.60in /  1036.1hPa South 2.0mph /  3.2km/h 3.0mph /  4.8km/h 78% 0.00in /  0mm
04:09 16.0 °F /  -8.9 °C 10.3 °F /  -12.1 °C 30.60in /  1036.1hPa South 2.0mph /  3.2km/h 5.0mph /  8km/h 78% 0.00in /  0mm
04:14 16.0 °F /  -8.9 °C 10.3 °F /  -12.1 °C 30.60in /  1036.1hPa South 2.0mph /  3.2km/h 5.0mph /  8km/h 78% 0.00in /  0mm
04:19 15.9 °F /  -8.9 °C 10.3 °F /  -12.1 °C 30.60in /  1036.1hPa South 2.0mph /  3.2km/h 5.0mph /  8km/h 78% 0.00in /  0mm
04:24 16.0 °F /  -8.9 °C 10.3 °F /  -12.1 °C 30.59in /  1035.8hPa South 3.0mph /  4.8km/h 6.0mph /  9.7km/h 78% 0.00in /  0mm
04:29 16.0 °F /  -8.9 °C 10.3 °F /  -12.1 °C 30.59in /  1035.8hPa South 4.0mph /  6.4km/h 6.0mph /  9.7km/h 78% 0.00in /  0mm
04:34 16.0 °F /  -8.9 °C 10.3 °F /  -12.1 °C 30.59in /  1035.8hPa South 1.0mph /  1.6km/h 7.0mph /  11.3km/h 78% 0.00in /  0mm
04:39 16.1 °F /  -8.8 °C 10.4 °F /  -12 °C 30.59in /  1035.8hPa SSE 5.0mph /  8km/h 7.0mph /  11.3km/h 78% 0.00in /  0mm
04:44 16.4 °F /  -8.7 °C 10.7 °F /  -11.8 °C 30.59in /  1035.8hPa South 4.0mph /  6.4km/h 9.0mph /  14.5km/h 78% 0.00in /  0mm
04:49 16.5 °F /  -8.6 °C 10.5 °F /  -11.9 °C 30.59in /  1035.8hPa SSW 5.0mph /  8km/h 9.0mph /  14.5km/h 77% 0.00in /  0mm
04:54 16.6 °F /  -8.6 °C 10.3 °F /  -12.1 °C 30.58in /  1035.4hPa SSE 8.0mph /  12.9km/h 11.0mph /  17.7km/h 76% 0.00in /  0mm
04:59 16.6 °F /  -8.6 °C 10.3 °F /  -12.1 °C 30.58in /  1035.4hPa SSW 7.0mph /  11.3km/h 12.0mph /  19.3km/h 76% 0.00in /  0mm
05:04 16.5 °F /  -8.6 °C 10.3 °F /  -12.1 °C 30.58in /  1035.4hPa South 4.0mph /  6.4km/h 7.0mph /  11.3km/h 76% 0.00in /  0mm
05:09 16.5 °F /  -8.6 °C 10.0 °F /  -12.2 °C 30.58in /  1035.4hPa SSE 6.0mph /  9.7km/h 9.0mph /  14.5km/h 75% 0.00in /  0mm
05:14 16.4 °F /  -8.7 °C 9.9 °F /  -12.3 °C 30.58in /  1035.4hPa SSW 5.0mph /  8km/h 10.0mph /  16.1km/h 75% 0.00in /  0mm
05:19 16.3 °F /  -8.7 °C 9.5 °F /  -12.5 °C 30.58in /  1035.4hPa South 6.0mph /  9.7km/h 13.0mph /  20.9km/h 74% 0.00in /  0mm
05:24 16.2 °F /  -8.8 °C 9.4 °F /  -12.6 °C 30.58in /  1035.4hPa SSW 6.0mph /  9.7km/h 14.0mph /  22.5km/h 74% 0.00in /  0mm
05:29 16.2 °F /  -8.8 °C 9.4 °F /  -12.6 °C 30.58in /  1035.4hPa SSW 6.0mph /  9.7km/h 14.0mph /  22.5km/h 74% 0.00in /  0mm
05:34 16.1 °F /  -8.8 °C 9.0 °F /  -12.8 °C 30.58in /  1035.4hPa South 4.0mph /  6.4km/h 11.0mph /  17.7km/h 73% 0.00in /  0mm
05:39 16.0 °F /  -8.9 °C 9.2 °F /  -12.7 °C 30.58in /  1035.4hPa SSW 4.0mph /  6.4km/h 9.0mph /  14.5km/h 74% 0.00in /  0mm
05:44 15.9 °F /  -8.9 °C 9.1 °F /  -12.7 °C 30.59in /  1035.8hPa SSW 4.0mph /  6.4km/h 9.0mph /  14.5km/h 74% 0.00in /  0mm
05:49 15.8 °F /  -9 °C 8.7 °F /  -12.9 °C 30.59in /  1035.8hPa SSW 5.0mph /  8km/h 11.0mph /  17.7km/h 73% 0.00in /  0mm
05:54 15.7 °F /  -9.1 °C 8.6 °F /  -13 °C 30.58in /  1035.4hPa SSW 6.0mph /  9.7km/h 10.0mph /  16.1km/h 73% 0.00in /  0mm
05:59 15.6 °F /  -9.1 °C 8.5 °F /  -13.1 °C 30.58in /  1035.4hPa SSW 2.0mph /  3.2km/h 9.0mph /  14.5km/h 73% 0.00in /  0mm
06:04 15.6 °F /  -9.1 °C 8.2 °F /  -13.2 °C 30.58in /  1035.4hPa South 6.0mph /  9.7km/h 14.0mph /  22.5km/h 72% 0.00in /  0mm
06:09 15.4 °F /  -9.2 °C 7.7 °F /  -13.5 °C 30.58in /  1035.4hPa SSW 7.0mph /  11.3km/h 14.0mph /  22.5km/h 71% 0.00in /  0mm
06:14 15.4 °F /  -9.2 °C 7.7 °F /  -13.5 °C 30.59in /  1035.8hPa South 5.0mph /  8km/h 12.0mph /  19.3km/h 71% 0.00in /  0mm
06:19 15.3 °F /  -9.3 °C 7.3 °F /  -13.7 °C 30.59in /  1035.8hPa SSW 9.0mph /  14.5km/h 11.0mph /  17.7km/h 70% 0.00in /  0mm
06:24 15.3 °F /  -9.3 °C 7.3 °F /  -13.7 °C 30.59in /  1035.8hPa SSW 6.0mph /  9.7km/h 12.0mph /  19.3km/h 70% 0.00in /  0mm
06:29 15.2 °F /  -9.3 °C 6.8 °F /  -14 °C 30.59in /  1035.8hPa SSW 6.0mph /  9.7km/h 12.0mph /  19.3km/h 69% 0.00in /  0mm
06:34 15.1 °F /  -9.4 °C 6.8 °F /  -14 °C 30.59in /  1035.8hPa SSW 6.0mph /  9.7km/h 14.0mph /  22.5km/h 69% 0.00in /  0mm
06:39 15.0 °F /  -9.4 °C 6.3 °F /  -14.3 °C 30.59in /  1035.8hPa SSW 6.0mph /  9.7km/h 14.0mph /  22.5km/h 68% 0.00in /  0mm
06:44 15.0 °F /  -9.4 °C 6.3 °F /  -14.3 °C 30.59in /  1035.8hPa SSW 8.0mph /  12.9km/h 15.0mph /  24.1km/h 68% 0.00in /  0mm
06:49 14.9 °F /  -9.5 °C 6.2 °F /  -14.3 °C 30.59in /  1035.8hPa SSW 8.0mph /  12.9km/h 15.0mph /  24.1km/h 68% 0.00in /  0mm
06:59 14.8 °F /  -9.6 °C 6.1 °F /  -14.4 °C 30.59in /  1035.8hPa South 6.0mph /  9.7km/h 11.0mph /  17.7km/h 68% 0.00in /  0mm
07:04 14.8 °F /  -9.6 °C 5.8 °F /  -14.6 °C 30.59in /  1035.8hPa South 7.0mph /  11.3km/h 14.0mph /  22.5km/h 67% 0.00in /  0mm
07:09 14.7 °F /  -9.6 °C 5.4 °F /  -14.8 °C 30.59in /  1035.8hPa SSW 7.0mph /  11.3km/h 14.0mph /  22.5km/h 66% 0.00in /  0mm
07:14 14.6 °F /  -9.7 °C 5.6 °F /  -14.7 °C 30.59in /  1035.8hPa SSW 7.0mph /  11.3km/h 14.0mph /  22.5km/h 67% 0.00in /  0mm
07:24 14.5 °F /  -9.7 °C 5.5 °F /  -14.7 °C 30.58in /  1035.4hPa SW 8.0mph /  12.9km/h 12.0mph /  19.3km/h 67% 0.00in /  0mm
07:29 14.4 °F /  -9.8 °C 5.1 °F /  -14.9 °C 30.58in /  1035.4hPa SSW 7.0mph /  11.3km/h 13.0mph /  20.9km/h 66% 0.00in /  0mm
07:34 14.4 °F /  -9.8 °C 5.4 °F /  -14.8 °C 30.58in /  1035.4hPa SSW 7.0mph /  11.3km/h 13.0mph /  20.9km/h 67% 0.00in /  0mm
07:39 14.4 °F /  -9.8 °C 5.1 °F /  -14.9 °C 30.58in /  1035.4hPa SW 5.0mph /  8km/h 13.0mph /  20.9km/h 66% 0.00in /  0mm
07:44 14.3 °F /  -9.8 °C 5.0 °F /  -15 °C 30.58in /  1035.4hPa SSW 6.0mph /  9.7km/h 16.0mph /  25.7km/h 66% 0.00in /  0mm
07:49 14.3 °F /  -9.8 °C 5.0 °F /  -15 °C 30.57in /  1035.1hPa SSW 7.0mph /  11.3km/h 16.0mph /  25.7km/h 66% 0.00in /  0mm
07:54 14.3 °F /  -9.8 °C 5.0 °F /  -15 °C 30.57in /  1035.1hPa SSW 3.0mph /  4.8km/h 15.0mph /  24.1km/h 66% 0.00in /  0mm
07:59 14.3 °F /  -9.8 °C 5.0 °F /  -15 °C 30.57in /  1035.1hPa SSW 6.0mph /  9.7km/h 15.0mph /  24.1km/h 66% 0.00in /  0mm
08:04 14.3 °F /  -9.8 °C 5.0 °F /  -15 °C 30.57in /  1035.1hPa SSW 6.0mph /  9.7km/h 17.0mph /  27.4km/h 66% 0.00in /  0mm
08:09 14.3 °F /  -9.8 °C 5.0 °F /  -15 °C 30.56in /  1034.8hPa South 9.0mph /  14.5km/h 12.0mph /  19.3km/h 66% 0.00in /  0mm
08:14 14.3 °F /  -9.8 °C 5.0 °F /  -15 °C 30.56in /  1034.8hPa South 5.0mph /  8km/h 14.0mph /  22.5km/h 66% 0.00in /  0mm
08:19 14.4 °F /  -9.8 °C 5.4 °F /  -14.8 °C 30.56in /  1034.8hPa South 9.0mph /  14.5km/h 13.0mph /  20.9km/h 67% 0.00in /  0mm
08:24 14.4 °F /  -9.8 °C 5.4 °F /  -14.8 °C 30.56in /  1034.8hPa South 3.0mph /  4.8km/h 12.0mph /  19.3km/h 67% 0.00in /  0mm
08:29 14.5 °F /  -9.7 °C 5.9 °F /  -14.5 °C 30.56in /  1034.8hPa SSW 6.0mph /  9.7km/h 12.0mph /  19.3km/h 68% 0.00in /  0mm
08:34 14.6 °F /  -9.7 °C 5.3 °F /  -14.8 °C 30.56in /  1034.8hPa SSW 5.0mph /  8km/h 13.0mph /  20.9km/h 66% 0.00in /  0mm
08:39 14.7 °F /  -9.6 °C 5.7 °F /  -14.6 °C 30.56in /  1034.8hPa SSW 12.0mph /  19.3km/h 15.0mph /  24.1km/h 67% 0.00in /  0mm
08:44 14.8 °F /  -9.6 °C 5.8 °F /  -14.6 °C 30.55in /  1034.4hPa SSW 6.0mph /  9.7km/h 15.0mph /  24.1km/h 67% 0.00in /  0mm
08:49 14.9 °F /  -9.5 °C 5.9 °F /  -14.5 °C 30.55in /  1034.4hPa SSW 6.0mph /  9.7km/h 13.0mph /  20.9km/h 67% 0.00in /  0mm
08:54 14.9 °F /  -9.5 °C 5.9 °F /  -14.5 °C 30.55in /  1034.4hPa South 10.0mph /  16.1km/h 16.0mph /  25.7km/h 67% 0.00in /  0mm
09:04 15.0 °F /  -9.4 °C 6.0 °F /  -14.4 °C 30.55in /  1034.4hPa SSW 7.0mph /  11.3km/h 15.0mph /  24.1km/h 67% 0.00in /  0mm
09:14 15.3 °F /  -9.3 °C 6.3 °F /  -14.3 °C 30.55in /  1034.4hPa SSW 7.0mph /  11.3km/h 11.0mph /  17.7km/h 67% 0.00in /  0mm
09:19 15.4 °F /  -9.2 °C 6.4 °F /  -14.2 °C 30.55in /  1034.4hPa SSW 6.0mph /  9.7km/h 11.0mph /  17.7km/h 67% 0.00in /  0mm
09:24 15.4 °F /  -9.2 °C 6.4 °F /  -14.2 °C 30.55in /  1034.4hPa SSW 5.0mph /  8km/h 12.0mph /  19.3km/h 67% 0.00in /  0mm
09:29 15.6 °F /  -9.1 °C 6.3 °F /  -14.3 °C 30.54in /  1034.1hPa SSW 6.0mph /  9.7km/h 13.0mph /  20.9km/h 66% 0.00in /  0mm
09:34 15.7 °F /  -9.1 °C 6.0 °F /  -14.4 °C 30.54in /  1034.1hPa SSW 7.0mph /  11.3km/h 13.0mph /  20.9km/h 65% 0.00in /  0mm
09:39 15.9 °F /  -8.9 °C 6.5 °F /  -14.2 °C 30.53in /  1033.7hPa South 8.0mph /  12.9km/h 13.0mph /  20.9km/h 66% 0.00in /  0mm
09:44 16.0 °F /  -8.9 °C 6.6 °F /  -14.1 °C 30.54in /  1034.1hPa South 8.0mph /  12.9km/h 14.0mph /  22.5km/h 66% 0.00in /  0mm
09:54 16.3 °F /  -8.7 °C 6.9 °F /  -13.9 °C 30.53in /  1033.7hPa South 7.0mph /  11.3km/h 13.0mph /  20.9km/h 66% 0.00in /  0mm
09:59 16.5 °F /  -8.6 °C 7.1 °F /  -13.8 °C 30.53in /  1033.7hPa SSW 7.0mph /  11.3km/h 11.0mph /  17.7km/h 66% 0.00in /  0mm
10:04 16.6 °F /  -8.6 °C 6.9 °F /  -13.9 °C 30.52in /  1033.4hPa South 6.0mph /  9.7km/h 12.0mph /  19.3km/h 65% 0.00in /  0mm
10:09 16.8 °F /  -8.4 °C 7.1 °F /  -13.8 °C 30.52in /  1033.4hPa South 7.0mph /  11.3km/h 14.0mph /  22.5km/h 65% 0.00in /  0mm
10:14 17.0 °F /  -8.3 °C 7.3 °F /  -13.7 °C 30.52in /  1033.4hPa SSE 8.0mph /  12.9km/h 15.0mph /  24.1km/h 65% 0.00in /  0mm
10:19 17.0 °F /  -8.3 °C 6.9 °F /  -13.9 °C 30.52in /  1033.4hPa South 7.0mph /  11.3km/h 16.0mph /  25.7km/h 64% 0.00in /  0mm
10:24 17.2 °F /  -8.2 °C 7.1 °F /  -13.8 °C 30.52in /  1033.4hPa South 13.0mph /  20.9km/h 14.0mph /  22.5km/h 64% 0.00in /  0mm
10:29 17.3 °F /  -8.2 °C 7.5 °F /  -13.6 °C 30.52in /  1033.4hPa South 6.0mph /  9.7km/h 15.0mph /  24.1km/h 65% 0.00in /  0mm
10:34 17.4 °F /  -8.1 °C 8.0 °F /  -13.3 °C 30.52in /  1033.4hPa SW 7.0mph /  11.3km/h 16.0mph /  25.7km/h 66% 0.00in /  0mm
10:39 17.5 °F /  -8.1 °C 8.1 °F /  -13.3 °C 30.51in /  1033.1hPa SSW 7.0mph /  11.3km/h 16.0mph /  25.7km/h 66% 0.00in /  0mm
10:44 17.7 °F /  -7.9 °C 8.6 °F /  -13 °C 30.51in /  1033.1hPa South 9.0mph /  14.5km/h 14.0mph /  22.5km/h 67% 0.00in /  0mm
10:49 17.7 °F /  -7.9 °C 8.6 °F /  -13 °C 30.51in /  1033.1hPa South 11.0mph /  17.7km/h 15.0mph /  24.1km/h 67% 0.00in /  0mm
10:54 18.0 °F /  -7.8 °C 8.2 °F /  -13.2 °C 30.50in /  1032.7hPa SSW 8.0mph /  12.9km/h 16.0mph /  25.7km/h 65% 0.00in /  0mm
10:59 18.1 °F /  -7.7 °C 8.6 °F /  -13 °C 30.50in /  1032.7hPa SSW 8.0mph /  12.9km/h 16.0mph /  25.7km/h 66% 0.00in /  0mm
11:04 18.2 °F /  -7.7 °C 8.7 °F /  -12.9 °C 30.50in /  1032.7hPa SSW 5.0mph /  8km/h 12.0mph /  19.3km/h 66% 0.00in /  0mm
11:09 18.5 °F /  -7.5 °C 9.0 °F /  -12.8 °C 30.49in /  1032.4hPa South 6.0mph /  9.7km/h 13.0mph /  20.9km/h 66% 0.00in /  0mm
11:14 18.5 °F /  -7.5 °C 8.7 °F /  -12.9 °C 30.48in /  1032.1hPa South 3.0mph /  4.8km/h 13.0mph /  20.9km/h 65% 0.00in /  0mm
11:19 19.0 °F /  -7.2 °C 9.5 °F /  -12.5 °C 30.48in /  1032.1hPa South 6.0mph /  9.7km/h 13.0mph /  20.9km/h 66% 0.00in /  0mm
11:24 19.1 °F /  -7.2 °C 9.3 °F /  -12.6 °C 30.47in /  1031.7hPa South 6.0mph /  9.7km/h 14.0mph /  22.5km/h 65% 0.00in /  0mm
11:29 19.3 °F /  -7.1 °C 9.1 °F /  -12.7 °C 30.47in /  1031.7hPa South 4.0mph /  6.4km/h 11.0mph /  17.7km/h 64% 0.00in /  0mm
11:34 19.6 °F /  -6.9 °C 9.4 °F /  -12.6 °C 30.47in /  1031.7hPa South 7.0mph /  11.3km/h 12.0mph /  19.3km/h 64% 0.00in /  0mm
11:39 19.7 °F /  -6.8 °C 9.8 °F /  -12.3 °C 30.46in /  1031.4hPa SSW 4.0mph /  6.4km/h 13.0mph /  20.9km/h 65% 0.00in /  0mm
11:44 19.7 °F /  -6.8 °C 10.5 °F /  -11.9 °C 30.46in /  1031.4hPa SSE 7.0mph /  11.3km/h 16.0mph /  25.7km/h 67% 0.00in /  0mm
11:49 19.7 °F /  -6.8 °C 11.2 °F /  -11.6 °C 30.45in /  1031hPa SSW 8.0mph /  12.9km/h 16.0mph /  25.7km/h 69% 0.00in /  0mm
11:54 19.9 °F /  -6.7 °C 12.0 °F /  -11.1 °C 30.45in /  1031hPa SSW 9.0mph /  14.5km/h 18.0mph /  29km/h 71% 0.00in /  0mm
11:59 20.4 °F /  -6.4 °C 12.8 °F /  -10.7 °C 30.44in /  1030.7hPa South 5.0mph /  8km/h 13.0mph /  20.9km/h 72% 0.00in /  0mm
12:04 20.8 °F /  -6.2 °C 12.9 °F /  -10.6 °C 30.44in /  1030.7hPa SSW 6.0mph /  9.7km/h 13.0mph /  20.9km/h 71% 0.00in /  0mm
12:09 21.3 °F /  -5.9 °C 13.4 °F /  -10.3 °C 30.44in /  1030.7hPa South 7.0mph /  11.3km/h 14.0mph /  22.5km/h 71% 0.00in /  0mm
12:14 21.4 °F /  -5.9 °C 13.1 °F /  -10.5 °C 30.44in /  1030.7hPa SSW 7.0mph /  11.3km/h 14.0mph /  22.5km/h 70% 0.00in /  0mm
12:19 22.0 °F /  -5.6 °C 13.7 °F /  -10.2 °C 30.44in /  1030.7hPa SSW 7.0mph /  11.3km/h 13.0mph /  20.9km/h 70% 0.00in /  0mm
12:24 22.4 °F /  -5.3 °C 14.1 °F /  -9.9 °C 30.43in /  1030.4hPa SSW 7.0mph /  11.3km/h 14.0mph /  22.5km/h 70% 0.00in /  0mm
12:29 22.5 °F /  -5.3 °C 14.2 °F /  -9.9 °C 30.43in /  1030.4hPa SSW 7.0mph /  11.3km/h 14.0mph /  22.5km/h 70% 0.00in /  0mm
12:34 22.9 °F /  -5.1 °C 14.6 °F /  -9.7 °C 30.42in /  1030hPa South 7.0mph /  11.3km/h 14.0mph /  22.5km/h 70% 0.00in /  0mm
12:39 23.4 °F /  -4.8 °C 14.7 °F /  -9.6 °C 30.42in /  1030hPa SSE 13.0mph /  20.9km/h 13.0mph /  20.9km/h 69% 0.00in /  0mm
12:44 23.5 °F /  -4.7 °C 14.8 °F /  -9.6 °C 30.42in /  1030hPa SW 5.0mph /  8km/h 14.0mph /  22.5km/h 69% 0.00in /  0mm
12:49 23.1 °F /  -4.9 °C 14.4 °F /  -9.8 °C 30.42in /  1030hPa SSW 6.0mph /  9.7km/h 14.0mph /  22.5km/h 69% 0.00in /  0mm
12:54 23.3 °F /  -4.8 °C 14.6 °F /  -9.7 °C 30.42in /  1030hPa South 6.0mph /  9.7km/h 11.0mph /  17.7km/h 69% 0.00in /  0mm
12:59 23.6 °F /  -4.7 °C 14.6 °F /  -9.7 °C 30.41in /  1029.7hPa West 8.0mph /  12.9km/h 14.0mph /  22.5km/h 68% 0.00in /  0mm
13:04 23.5 °F /  -4.7 °C 14.1 °F /  -9.9 °C 30.41in /  1029.7hPa SW 8.0mph /  12.9km/h 16.0mph /  25.7km/h 67% 0.00in /  0mm
13:14 23.5 °F /  -4.7 °C 13.8 °F /  -10.1 °C 30.41in /  1029.7hPa SSW 8.0mph /  12.9km/h 21.0mph /  33.8km/h 66% 0.00in /  0mm
13:19 23.6 °F /  -4.7 °C 13.9 °F /  -10.1 °C 30.42in /  1030hPa SSW 7.0mph /  11.3km/h 21.0mph /  33.8km/h 66% 0.00in /  0mm
13:24 23.6 °F /  -4.7 °C 14.2 °F /  -9.9 °C 30.41in /  1029.7hPa SSW 6.0mph /  9.7km/h 14.0mph /  22.5km/h 67% 0.00in /  0mm
13:29 23.8 °F /  -4.6 °C 13.4 °F /  -10.3 °C 30.41in /  1029.7hPa SSW 7.0mph /  11.3km/h 14.0mph /  22.5km/h 64% 0.00in /  0mm
13:34 23.9 °F /  -4.5 °C 13.1 °F /  -10.5 °C 30.41in /  1029.7hPa SSW 6.0mph /  9.7km/h 16.0mph /  25.7km/h 63% 0.00in /  0mm
13:39 23.8 °F /  -4.6 °C 12.7 °F /  -10.7 °C 30.41in /  1029.7hPa SSW 8.0mph /  12.9km/h 16.0mph /  25.7km/h 62% 0.00in /  0mm
13:44 23.9 °F /  -4.5 °C 12.0 °F /  -11.1 °C 30.41in /  1029.7hPa SW 7.0mph /  11.3km/h 18.0mph /  29km/h 60% 0.00in /  0mm
13:49 24.5 °F /  -4.2 °C 12.2 °F /  -11 °C 30.41in /  1029.7hPa South 4.0mph /  6.4km/h 18.0mph /  29km/h 59% 0.00in /  0mm
13:54 24.8 °F /  -4 °C 12.1 °F /  -11.1 °C 30.41in /  1029.7hPa SSW 6.0mph /  9.7km/h 19.0mph /  30.6km/h 58% 0.00in /  0mm
13:59 25.1 °F /  -3.8 °C 12.4 °F /  -10.9 °C 30.41in /  1029.7hPa SW 9.0mph /  14.5km/h 12.0mph /  19.3km/h 58% 0.00in /  0mm
14:04 25.7 °F /  -3.5 °C 12.6 °F /  -10.8 °C 30.41in /  1029.7hPa SW 5.0mph /  8km/h 12.0mph /  19.3km/h 57% 0.00in /  0mm
14:09 25.6 °F /  -3.6 °C 12.1 °F /  -11.1 °C 30.41in /  1029.7hPa SSW 6.0mph /  9.7km/h 15.0mph /  24.1km/h 56% 0.00in /  0mm
14:14 25.9 °F /  -3.4 °C 11.5 °F /  -11.4 °C 30.41in /  1029.7hPa SSW 7.0mph /  11.3km/h 19.0mph /  30.6km/h 54% 0.00in /  0mm
14:19 26.1 °F /  -3.3 °C 11.7 °F /  -11.3 °C 30.41in /  1029.7hPa SSW 8.0mph /  12.9km/h 19.0mph /  30.6km/h 54% 0.00in /  0mm
14:24 26.1 °F /  -3.3 °C 11.3 °F /  -11.5 °C 30.40in /  1029.3hPa SSW 8.0mph /  12.9km/h 17.0mph /  27.4km/h 53% 0.00in /  0mm
14:29 26.2 °F /  -3.2 °C 11.4 °F /  -11.4 °C 30.41in /  1029.7hPa SSW 8.0mph /  12.9km/h 17.0mph /  27.4km/h 53% 0.00in /  0mm
14:34 26.4 °F /  -3.1 °C 11.6 °F /  -11.3 °C 30.41in /  1029.7hPa South 6.0mph /  9.7km/h 13.0mph /  20.9km/h 53% 0.00in /  0mm
14:39 26.4 °F /  -3.1 °C 11.1 °F /  -11.6 °C 30.41in /  1029.7hPa SSW 6.0mph /  9.7km/h 13.0mph /  20.9km/h 52% 0.00in /  0mm
14:44 26.3 °F /  -3.2 °C 11.5 °F /  -11.4 °C 30.41in /  1029.7hPa WSW 5.0mph /  8km/h 10.0mph /  16.1km/h 53% 0.00in /  0mm
14:49 26.4 °F /  -3.1 °C 11.1 °F /  -11.6 °C 30.41in /  1029.7hPa SW 4.0mph /  6.4km/h 14.0mph /  22.5km/h 52% 0.00in /  0mm
14:54 26.0 °F /  -3.3 °C 10.8 °F /  -11.8 °C 30.41in /  1029.7hPa WSW 8.0mph /  12.9km/h 15.0mph /  24.1km/h 52% 0.00in /  0mm
14:59 25.9 °F /  -3.4 °C 11.5 °F /  -11.4 °C 30.41in /  1029.7hPa WSW 10.0mph /  16.1km/h 12.0mph /  19.3km/h 54% 0.00in /  0mm
15:04 25.9 °F /  -3.4 °C 11.5 °F /  -11.4 °C 30.41in /  1029.7hPa SW 5.0mph /  8km/h 14.0mph /  22.5km/h 54% 0.00in /  0mm
15:09 26.2 °F /  -3.2 °C 10.9 °F /  -11.7 °C 30.41in /  1029.7hPa SW 20.0mph /  32.2km/h 20.0mph /  32.2km/h 52% 0.00in /  0mm
15:14 26.3 °F /  -3.2 °C 11.0 °F /  -11.7 °C 30.41in /  1029.7hPa SW 7.0mph /  11.3km/h 20.0mph /  32.2km/h 52% 0.00in /  0mm
15:19 26.4 °F /  -3.1 °C 11.6 °F /  -11.3 °C 30.42in /  1030hPa SW 8.0mph /  12.9km/h 20.0mph /  32.2km/h 53% 0.00in /  0mm
15:24 26.4 °F /  -3.1 °C 11.6 °F /  -11.3 °C 30.42in /  1030hPa SW 8.0mph /  12.9km/h 15.0mph /  24.1km/h 53% 0.00in /  0mm
15:29 26.6 °F /  -3 °C 11.7 °F /  -11.3 °C 30.42in /  1030hPa SW 8.0mph /  12.9km/h 18.0mph /  29km/h 53% 0.00in /  0mm
15:34 26.5 °F /  -3.1 °C 12.1 °F /  -11.1 °C 30.42in /  1030hPa SW 9.0mph /  14.5km/h 18.0mph /  29km/h 54% 0.00in /  0mm
15:39 26.4 °F /  -3.1 °C 12.0 °F /  -11.1 °C 30.42in /  1030hPa SW 8.0mph /  12.9km/h 17.0mph /  27.4km/h 54% 0.00in /  0mm
15:44 26.4 °F /  -3.1 °C 11.6 °F /  -11.3 °C 30.43in /  1030.4hPa SW 8.0mph /  12.9km/h 20.0mph /  32.2km/h 53% 0.00in /  0mm
15:54 26.2 °F /  -3.2 °C 12.2 °F /  -11 °C 30.43in /  1030.4hPa SSW 8.0mph /  12.9km/h 17.0mph /  27.4km/h 55% 0.00in /  0mm
15:59 26.0 °F /  -3.3 °C 12.0 °F /  -11.1 °C 30.43in /  1030.4hPa SW 10.0mph /  16.1km/h 21.0mph /  33.8km/h 55% 0.00in /  0mm
16:04 25.9 °F /  -3.4 °C 11.9 °F /  -11.2 °C 30.43in /  1030.4hPa SW 9.0mph /  14.5km/h 21.0mph /  33.8km/h 55% 0.00in /  0mm
16:09 25.7 °F /  -3.5 °C 11.7 °F /  -11.3 °C 30.43in /  1030.4hPa SSW 5.0mph /  8km/h 20.0mph /  32.2km/h 55% 0.00in /  0mm
16:14 25.4 °F /  -3.7 °C 11.9 °F /  -11.2 °C 30.43in /  1030.4hPa South 10.0mph /  16.1km/h 17.0mph /  27.4km/h 56% 0.00in /  0mm
16:19 25.4 °F /  -3.7 °C 12.3 °F /  -10.9 °C 30.43in /  1030.4hPa SW 7.0mph /  11.3km/h 19.0mph /  30.6km/h 57% 0.00in /  0mm
16:24 25.3 °F /  -3.7 °C 12.2 °F /  -11 °C 30.43in /  1030.4hPa SW 9.0mph /  14.5km/h 19.0mph /  30.6km/h 57% 0.00in /  0mm
16:29 25.3 °F /  -3.7 °C 12.6 °F /  -10.8 °C 30.43in /  1030.4hPa SW 7.0mph /  11.3km/h 16.0mph /  25.7km/h 58% 0.00in /  0mm
16:34 25.1 °F /  -3.8 °C 12.8 °F /  -10.7 °C 30.43in /  1030.4hPa SW 6.0mph /  9.7km/h 17.0mph /  27.4km/h 59% 0.00in /  0mm
16:39 25.1 °F /  -3.8 °C 12.4 °F /  -10.9 °C 30.43in /  1030.4hPa SW 7.0mph /  11.3km/h 17.0mph /  27.4km/h 58% 0.00in /  0mm
16:44 25.1 °F /  -3.8 °C 12.4 °F /  -10.9 °C 30.43in /  1030.4hPa SSW 7.0mph /  11.3km/h 17.0mph /  27.4km/h 58% 0.00in /  0mm
16:49 25.1 °F /  -3.8 °C 12.4 °F /  -10.9 °C 30.43in /  1030.4hPa SW 7.0mph /  11.3km/h 15.0mph /  24.1km/h 58% 0.00in /  0mm
16:54 25.1 °F /  -3.8 °C 12.4 °F /  -10.9 °C 30.43in /  1030.4hPa South 4.0mph /  6.4km/h 15.0mph /  24.1km/h 58% 0.00in /  0mm
16:59 25.2 °F /  -3.8 °C 12.5 °F /  -10.8 °C 30.44in /  1030.7hPa SW 6.0mph /  9.7km/h 10.0mph /  16.1km/h 58% 0.00in /  0mm
17:04 25.1 °F /  -3.8 °C 12.0 °F /  -11.1 °C 30.44in /  1030.7hPa WSW 3.0mph /  4.8km/h 12.0mph /  19.3km/h 57% 0.00in /  0mm
17:09 24.9 °F /  -3.9 °C 11.8 °F /  -11.2 °C 30.44in /  1030.7hPa SSW 5.0mph /  8km/h 11.0mph /  17.7km/h 57% 0.00in /  0mm
17:14 24.9 °F /  -3.9 °C 11.4 °F /  -11.4 °C 30.44in /  1030.7hPa SSE 9.0mph /  14.5km/h 16.0mph /  25.7km/h 56% 0.00in /  0mm
17:19 24.8 °F /  -4 °C 11.7 °F /  -11.3 °C 30.44in /  1030.7hPa SSW 7.0mph /  11.3km/h 10.0mph /  16.1km/h 57% 0.00in /  0mm
17:24 24.7 °F /  -4.1 °C 11.6 °F /  -11.3 °C 30.44in /  1030.7hPa SSW 5.0mph /  8km/h 10.0mph /  16.1km/h 57% 0.00in /  0mm
17:29 24.5 °F /  -4.2 °C 11.8 °F /  -11.2 °C 30.43in /  1030.4hPa SSW 4.0mph /  6.4km/h 10.0mph /  16.1km/h 58% 0.00in /  0mm
17:34 24.3 °F /  -4.3 °C 11.2 °F /  -11.6 °C 30.44in /  1030.7hPa SSW 4.0mph /  6.4km/h 9.0mph /  14.5km/h 57% 0.00in /  0mm
17:39 24.4 °F /  -4.2 °C 10.9 °F /  -11.7 °C 30.44in /  1030.7hPa WSW 6.0mph /  9.7km/h 13.0mph /  20.9km/h 56% 0.00in /  0mm
17:44 24.5 °F /  -4.2 °C 11.0 °F /  -11.7 °C 30.44in /  1030.7hPa SSW 6.0mph /  9.7km/h 11.0mph /  17.7km/h 56% 0.00in /  0mm
17:49 24.4 °F /  -4.2 °C 10.5 °F /  -11.9 °C 30.44in /  1030.7hPa SSW 5.0mph /  8km/h 11.0mph /  17.7km/h 55% 0.00in /  0mm
17:54 24.3 °F /  -4.3 °C 10.4 °F /  -12 °C 30.44in /  1030.7hPa SSW 6.0mph /  9.7km/h 11.0mph /  17.7km/h 55% 0.00in /  0mm
17:59 24.3 °F /  -4.3 °C 10.4 °F /  -12 °C 30.44in /  1030.7hPa SSW 5.0mph /  8km/h 11.0mph /  17.7km/h 55% 0.00in /  0mm
18:04 24.2 °F /  -4.3 °C 10.3 °F /  -12.1 °C 30.44in /  1030.7hPa SSW 5.0mph /  8km/h 11.0mph /  17.7km/h 55% 0.00in /  0mm
18:09 24.0 °F /  -4.4 °C 10.6 °F /  -11.9 °C 30.44in /  1030.7hPa SSW 2.0mph /  3.2km/h 9.0mph /  14.5km/h 56% 0.00in /  0mm
18:14 23.8 °F /  -4.6 °C 10.8 °F /  -11.8 °C 30.44in /  1030.7hPa SSW 4.0mph /  6.4km/h 9.0mph /  14.5km/h 57% 0.00in /  0mm
18:19 23.6 °F /  -4.7 °C 10.2 °F /  -12.1 °C 30.44in /  1030.7hPa South 5.0mph /  8km/h 8.0mph /  12.9km/h 56% 0.00in /  0mm
18:24 23.5 °F /  -4.7 °C 10.1 °F /  -12.2 °C 30.44in /  1030.7hPa SSW 4.0mph /  6.4km/h 10.0mph /  16.1km/h 56% 0.00in /  0mm
18:29 23.4 °F /  -4.8 °C 10.0 °F /  -12.2 °C 30.44in /  1030.7hPa SSW 4.0mph /  6.4km/h 10.0mph /  16.1km/h 56% 0.00in /  0mm
18:34 23.2 °F /  -4.9 °C 9.8 °F /  -12.3 °C 30.44in /  1030.7hPa South 5.0mph /  8km/h 9.0mph /  14.5km/h 56% 0.00in /  0mm
18:39 23.1 °F /  -4.9 °C 9.7 °F /  -12.4 °C 30.44in /  1030.7hPa SSW 5.0mph /  8km/h 8.0mph /  12.9km/h 56% 0.00in /  0mm
18:44 22.9 °F /  -5.1 °C 9.9 °F /  -12.3 °C 30.44in /  1030.7hPa SSW 5.0mph /  8km/h 8.0mph /  12.9km/h 57% 0.00in /  0mm
18:54 22.7 °F /  -5.2 °C 9.7 °F /  -12.4 °C 30.44in /  1030.7hPa SSW 5.0mph /  8km/h 11.0mph /  17.7km/h 57% 0.00in /  0mm
18:59 22.6 °F /  -5.2 °C 9.6 °F /  -12.4 °C 30.44in /  1030.7hPa South 5.0mph /  8km/h 11.0mph /  17.7km/h 57% 0.00in /  0mm
19:04 22.3 °F /  -5.4 °C 9.7 °F /  -12.4 °C 30.44in /  1030.7hPa South 2.0mph /  3.2km/h 7.0mph /  11.3km/h 58% 0.00in /  0mm
19:09 21.9 °F /  -5.6 °C 9.4 °F /  -12.6 °C 30.44in /  1030.7hPa South 2.0mph /  3.2km/h 6.0mph /  9.7km/h 58% 0.00in /  0mm
19:14 21.7 °F /  -5.7 °C 9.2 °F /  -12.7 °C 30.44in /  1030.7hPa SSW 3.0mph /  4.8km/h 6.0mph /  9.7km/h 58% 0.00in /  0mm
19:19 21.7 °F /  -5.7 °C 9.2 °F /  -12.7 °C 30.44in /  1030.7hPa South 4.0mph /  6.4km/h 8.0mph /  12.9km/h 58% 0.00in /  0mm
19:24 21.8 °F /  -5.7 °C 9.7 °F /  -12.4 °C 30.44in /  1030.7hPa South 4.0mph /  6.4km/h 8.0mph /  12.9km/h 59% 0.00in /  0mm
19:29 21.6 °F /  -5.8 °C 9.5 °F /  -12.5 °C 30.44in /  1030.7hPa South 4.0mph /  6.4km/h 8.0mph /  12.9km/h 59% 0.00in /  0mm
19:34 21.6 °F /  -5.8 °C 9.5 °F /  -12.5 °C 30.44in /  1030.7hPa South 4.0mph /  6.4km/h 7.0mph /  11.3km/h 59% 0.00in /  0mm
19:39 21.6 °F /  -5.8 °C 9.5 °F /  -12.5 °C 30.44in /  1030.7hPa SSW 4.0mph /  6.4km/h 7.0mph /  11.3km/h 59% 0.00in /  0mm
19:44 21.5 °F /  -5.8 °C 9.4 °F /  -12.6 °C 30.44in /  1030.7hPa SSW 2.0mph /  3.2km/h 5.0mph /  8km/h 59% 0.00in /  0mm
19:49 21.4 °F /  -5.9 °C 9.7 °F /  -12.4 °C 30.44in /  1030.7hPa South 5.0mph /  8km/h 6.0mph /  9.7km/h 60% 0.00in /  0mm
19:54 21.2 °F /  -6 °C 9.5 °F /  -12.5 °C 30.44in /  1030.7hPa South 3.0mph /  4.8km/h 6.0mph /  9.7km/h 60% 0.00in /  0mm
19:59 21.2 °F /  -6 °C 9.5 °F /  -12.5 °C 30.44in /  1030.7hPa South 3.0mph /  4.8km/h 6.0mph /  9.7km/h 60% 0.00in /  0mm
20:04 21.2 °F /  -6 °C 9.5 °F /  -12.5 °C 30.44in /  1030.7hPa South 3.0mph /  4.8km/h 6.0mph /  9.7km/h 60% 0.00in /  0mm
20:09 21.2 °F /  -6 °C 9.5 °F /  -12.5 °C 30.43in /  1030.4hPa SSW 3.0mph /  4.8km/h 6.0mph /  9.7km/h 60% 0.00in /  0mm
20:14 21.1 °F /  -6.1 °C 9.4 °F /  -12.6 °C 30.44in /  1030.7hPa SSW 5.0mph /  8km/h 5.0mph /  8km/h 60% 0.00in /  0mm
20:19 21.2 °F /  -6 °C 9.5 °F /  -12.5 °C 30.43in /  1030.4hPa South 4.0mph /  6.4km/h 6.0mph /  9.7km/h 60% 0.00in /  0mm
20:24 21.4 °F /  -5.9 °C 9.3 °F /  -12.6 °C 30.44in /  1030.7hPa SSW 3.0mph /  4.8km/h 6.0mph /  9.7km/h 59% 0.00in /  0mm
20:29 21.3 °F /  -5.9 °C 9.2 °F /  -12.7 °C 30.44in /  1030.7hPa SSW 3.0mph /  4.8km/h 7.0mph /  11.3km/h 59% 0.00in /  0mm
20:34 21.3 °F /  -5.9 °C 9.2 °F /  -12.7 °C 30.44in /  1030.7hPa SSW 3.0mph /  4.8km/h 7.0mph /  11.3km/h 59% 0.00in /  0mm
20:39 21.1 °F /  -6.1 °C 9.0 °F /  -12.8 °C 30.44in /  1030.7hPa WSW 3.0mph /  4.8km/h 4.0mph /  6.4km/h 59% 0.00in /  0mm
20:44 21.0 °F /  -6.1 °C 8.9 °F /  -12.8 °C 30.44in /  1030.7hPa South 5.0mph /  8km/h 5.0mph /  8km/h 59% 0.00in /  0mm
20:49 21.0 °F /  -6.1 °C 8.9 °F /  -12.8 °C 30.44in /  1030.7hPa SSW 3.0mph /  4.8km/h 7.0mph /  11.3km/h 59% 0.00in /  0mm
20:54 20.9 °F /  -6.2 °C 8.8 °F /  -12.9 °C 30.44in /  1030.7hPa South 3.0mph /  4.8km/h 5.0mph /  8km/h 59% 0.00in /  0mm
20:59 20.7 °F /  -6.3 °C 8.6 °F /  -13 °C 30.44in /  1030.7hPa SW 3.0mph /  4.8km/h 5.0mph /  8km/h 59% 0.00in /  0mm
21:09 20.3 °F /  -6.5 °C 9.0 °F /  -12.8 °C 30.45in /  1031hPa South 2.0mph /  3.2km/h 5.0mph /  8km/h 61% 0.00in /  0mm
21:14 20.2 °F /  -6.6 °C 8.9 °F /  -12.8 °C 30.44in /  1030.7hPa South 2.0mph /  3.2km/h 5.0mph /  8km/h 61% 0.00in /  0mm
21:19 20.1 °F /  -6.6 °C 8.8 °F /  -12.9 °C 30.44in /  1030.7hPa South 2.0mph /  3.2km/h 4.0mph /  6.4km/h 61% 0.00in /  0mm
21:24 20.2 °F /  -6.6 °C 8.9 °F /  -12.8 °C 30.44in /  1030.7hPa SSW 3.0mph /  4.8km/h 4.0mph /  6.4km/h 61% 0.00in /  0mm
21:29 20.2 °F /  -6.6 °C 8.9 °F /  -12.8 °C 30.44in /  1030.7hPa SSW 1.0mph /  1.6km/h 4.0mph /  6.4km/h 61% 0.00in /  0mm
21:34 20.0 °F /  -6.7 °C 8.7 °F /  -12.9 °C 30.45in /  1031hPa South 1.0mph /  1.6km/h 5.0mph /  8km/h 61% 0.00in /  0mm
21:39 20.4 °F /  -6.4 °C 8.7 °F /  -12.9 °C 30.45in /  1031hPa South 4.0mph /  6.4km/h 5.0mph /  8km/h 60% 0.00in /  0mm
21:44 20.4 °F /  -6.4 °C 8.7 °F /  -12.9 °C 30.45in /  1031hPa South 1.0mph /  1.6km/h 5.0mph /  8km/h 60% 0.00in /  0mm
21:49 20.1 °F /  -6.6 °C 8.8 °F /  -12.9 °C 30.45in /  1031hPa South 2.0mph /  3.2km/h 3.0mph /  4.8km/h 61% 0.00in /  0mm
21:54 19.9 °F /  -6.7 °C 8.6 °F /  -13 °C 30.45in /  1031hPa South 2.0mph /  3.2km/h 4.0mph /  6.4km/h 61% 0.00in /  0mm
21:59 19.9 °F /  -6.7 °C 8.6 °F /  -13 °C 30.45in /  1031hPa South 4.0mph /  6.4km/h 4.0mph /  6.4km/h 61% 0.00in /  0mm
22:04 20.0 °F /  -6.7 °C 8.7 °F /  -12.9 °C 30.45in /  1031hPa South 2.0mph /  3.2km/h 4.0mph /  6.4km/h 61% 0.00in /  0mm
22:09 20.0 °F /  -6.7 °C 8.7 °F /  -12.9 °C 30.45in /  1031hPa South 2.0mph /  3.2km/h 5.0mph /  8km/h 61% 0.00in /  0mm
22:14 19.9 °F /  -6.7 °C 8.6 °F /  -13 °C 30.45in /  1031hPa South 2.0mph /  3.2km/h 5.0mph /  8km/h 61% 0.00in /  0mm
22:19 19.9 °F /  -6.7 °C 8.6 °F /  -13 °C 30.45in /  1031hPa South 3.0mph /  4.8km/h 5.0mph /  8km/h 61% 0.00in /  0mm
22:24 19.8 °F /  -6.8 °C 8.5 °F /  -13.1 °C 30.44in /  1030.7hPa South 3.0mph /  4.8km/h 5.0mph /  8km/h 61% 0.00in /  0mm
22:29 19.8 °F /  -6.8 °C 8.5 °F /  -13.1 °C 30.44in /  1030.7hPa South 3.0mph /  4.8km/h 5.0mph /  8km/h 61% 0.00in /  0mm
22:34 19.8 °F /  -6.8 °C 8.5 °F /  -13.1 °C 30.43in /  1030.4hPa South 3.0mph /  4.8km/h 5.0mph /  8km/h 61% 0.00in /  0mm
22:39 19.7 °F /  -6.8 °C 8.4 °F /  -13.1 °C 30.44in /  1030.7hPa South 1.0mph /  1.6km/h 5.0mph /  8km/h 61% 0.00in /  0mm
22:44 19.6 °F /  -6.9 °C 8.3 °F /  -13.2 °C 30.43in /  1030.4hPa South 3.0mph /  4.8km/h 5.0mph /  8km/h 61% 0.00in /  0mm
22:49 19.6 °F /  -6.9 °C 8.3 °F /  -13.2 °C 30.43in /  1030.4hPa South 1.0mph /  1.6km/h 4.0mph /  6.4km/h 61% 0.00in /  0mm
22:54 19.7 °F /  -6.8 °C 8.0 °F /  -13.3 °C 30.43in /  1030.4hPa SSE 2.0mph /  3.2km/h 4.0mph /  6.4km/h 60% 0.00in /  0mm
22:59 19.5 °F /  -6.9 °C 8.2 °F /  -13.2 °C 30.42in /  1030hPa SSW 2.0mph /  3.2km/h 4.0mph /  6.4km/h 61% 0.00in /  0mm
23:04 19.4 °F /  -7 °C 8.1 °F /  -13.3 °C 30.42in /  1030hPa South 2.0mph /  3.2km/h 4.0mph /  6.4km/h 61% 0.00in /  0mm
23:09 19.3 °F /  -7.1 °C 8.0 °F /  -13.3 °C 30.42in /  1030hPa South 1.0mph /  1.6km/h 4.0mph /  6.4km/h 61% 0.00in /  0mm
23:14 19.2 °F /  -7.1 °C 8.3 °F /  -13.2 °C 30.41in /  1029.7hPa South 2.0mph /  3.2km/h 5.0mph /  8km/h 62% 0.00in /  0mm
23:19 19.1 °F /  -7.2 °C 8.2 °F /  -13.2 °C 30.41in /  1029.7hPa South 2.0mph /  3.2km/h 5.0mph /  8km/h 62% 0.00in /  0mm
23:24 19.2 °F /  -7.1 °C 7.9 °F /  -13.4 °C 30.41in /  1029.7hPa South 2.0mph /  3.2km/h 5.0mph /  8km/h 61% 0.00in /  0mm
23:29 19.2 °F /  -7.1 °C 8.3 °F /  -13.2 °C 30.41in /  1029.7hPa SSE 2.0mph /  3.2km/h 4.0mph /  6.4km/h 62% 0.00in /  0mm
23:34 19.3 °F /  -7.1 °C 8.0 °F /  -13.3 °C 30.41in /  1029.7hPa South 2.0mph /  3.2km/h 4.0mph /  6.4km/h 61% 0.00in /  0mm
23:39 19.2 °F /  -7.1 °C 8.3 °F /  -13.2 °C 30.41in /  1029.7hPa South 3.0mph /  4.8km/h 3.0mph /  4.8km/h 62% 0.00in /  0mm
23:49 18.9 °F /  -7.3 °C 8.0 °F /  -13.3 °C 30.41in /  1029.7hPa South 1.0mph /  1.6km/h 3.0mph /  4.8km/h 62% 0.00in /  0mm
23:54 18.7 °F /  -7.4 °C 8.2 °F /  -13.2 °C 30.41in /  1029.7hPa South 1.0mph /  1.6km/h 3.0mph /  4.8km/h 63% 0.00in /  0mm
23:59 18.4 °F /  -7.6 °C 8.2 °F /  -13.2 °C 30.41in /  1029.7hPa South 1.0mph /  1.6km/h 2.0mph /  3.2km/h 64% 0.00in /  0mm
Buffalo, New York, USA
Compliments of Weather Underground - 2.25 mb